Jedburgh, United Kingdom
Current Conditions -  °F | °C
As of 6:50 AM on Saturday 20 Dec 2014 (Local Time) from EGOM Reporting Station
Rain Showers Rain Showers  
Wind Chill: 30°   Ceiling: 1400
Heat Index: 39°   Visibility: 5mi
Dew Point: 37°   Wind: 18mph
Humidity: 93%   Direction: 250°WSW
Pressure: 29.94"   Gusts: NA
Location:  55.48°N, 2.55°W
Report Text: EGOM 200650Z AUTO 25016KT 8000 -SHRA BKN014/// BKN025/// 04/03 Q1014
Loading
Personal Weather Stations






























Interactive Weather Map New forecast layout! Learn more

10-Day Weather Forecast

Advertisements
Track Severe Weather on mobile